Corner Brook, Canada
Current Conditions -  °F | °C
As of 11:00 PM on Monday 20 Oct 2014 (Local Time) from CYDF Reporting Station
Rain Showers Rain Showers  
Wind Chill: 34°   Ceiling: 3500
Heat Index: 43°   Visibility: 10mi
Dew Point: 39°   Wind: 20mph
Humidity: 87%   Direction: 230°SW
Pressure: 29.5"   Gusts: 31mph
Location:  48.95°N, 57.95°W
Report Text: CYDF 210100Z 23017G27KT 10SM -SHRA OVC035 06/04 A2950 RMK SC8 SLP990
Loading
Personal Weather Stations






























Interactive Weather Map
Tropical Storm Tracking
New forecast layout! Learn more

10-Day Weather Forecast

Advertisements
Track Severe Weather on mobile